Time;durP1;ratioP1;P1;durP2;ratioP2;P2;SDS_P1;SDS_P2;PMS_P1;PMS_P2;Temp;Humidity;BMP_temperature;BMP_pressure;BME280_temperature;BME280_humidity;BME280_pressure;Samples;Min_cycle;Max_cycle;Signal;HPM_P1;HPM_P2
2023/03/10 00:00:07;;;;;;;4.95;3.05;;;;;;;13.81;72.19;100569.06;5061091;28;20032;-86
2023/03/10 00:02:33;;;;;;;;;;;;;;;14.07;72.31;100611.13;5070994;28;20152;-86
2023/03/10 00:05:00;;;;;;;4.25;3.05;;;;;;;14.06;72.18;100614.63;5053028;28;20426;-85
2023/03/10 00:07:26;;;;;;;7.63;3.22;;;;;;;14.07;72.23;100605.88;5070500;28;20025;-86
2023/03/10 00:09:51;;;;;;;5.93;3.35;;;;;;;13.99;72.16;100583.69;5052608;28;20032;-85
2023/03/10 00:12:17;;;;;;;6.10;3.50;;;;;;;13.93;72.03;100573.00;5052673;28;20024;-86
2023/03/10 00:14:42;;;;;;;4.68;3.13;;;;;;;13.88;71.79;100567.56;5069362;28;20172;-86
2023/03/10 00:17:08;;;;;;;4.70;3.20;;;;;;;13.88;72.15;100572.81;5063032;28;20032;-85
2023/03/10 00:19:34;;;;;;;3.92;3.33;;;;;;;13.64;72.43;100539.56;5063460;28;20032;-86
2023/03/10 00:22:01;;;;;;;5.38;2.97;;;;;;;13.57;71.78;100532.31;5070484;28;20107;-86
2023/03/10 00:24:27;;;;;;;5.43;3.30;;;;;;;13.82;71.88;100572.56;5068700;28;20119;-85
2023/03/10 00:26:52;;;;;;;7.10;3.38;;;;;;;13.79;72.11;100556.72;5055848;28;20472;-85
2023/03/10 00:29:18;;;;;;;3.67;3.00;;;;;;;13.65;72.30;100545.69;5070290;28;20028;-85
2023/03/10 00:31:43;;;;;;;4.80;3.20;;;;;;;13.74;72.07;100560.91;5070343;28;20035;-86
2023/03/10 00:34:10;;;;;;;6.47;3.35;;;;;;;13.84;72.25;100569.19;5052723;28;20032;-85
2023/03/10 00:36:36;;;;;;;5.68;3.30;;;;;;;13.98;71.82;100600.31;5052462;28;20024;-86
2023/03/10 00:39:03;;;;;;;7.60;3.40;;;;;;;13.98;72.06;100598.56;5052407;28;20033;-85
2023/03/10 00:41:31;;;;;;;5.00;3.10;;;;;;;14.08;72.31;100607.69;5052257;28;20075;-86
2023/03/10 00:43:58;;;;;;;5.03;3.10;;;;;;;14.10;72.14;100608.66;5052762;28;20106;-85
2023/03/10 00:46:24;;;;;;;4.65;3.10;;;;;;;14.08;72.05;100625.19;5070183;28;20032;-85
2023/03/10 00:48:50;;;;;;;4.35;3.28;;;;;;;13.78;71.63;100570.69;5052307;28;20033;-85
2023/03/10 00:51:17;;;;;;;5.07;3.28;;;;;;;13.68;72.12;100551.06;5070447;28;20035;-85
2023/03/10 00:53:43;;;;;;;5.47;3.40;;;;;;;13.95;71.58;100592.28;5048804;28;20029;-85
2023/03/10 00:56:15;;;;;;;5.93;3.20;;;;;;;14.08;72.17;100606.81;5070113;28;20025;-85
2023/03/10 00:58:42;;;;;;;6.88;3.80;;;;;;;13.98;71.71;100592.44;5052247;28;20024;-85
2023/03/10 01:01:20;;;;;;;4.20;3.03;;;;;;;13.96;71.93;100588.84;5052231;28;20049;-85
2023/03/10 01:03:46;;;;;;;4.68;3.30;;;;;;;14.05;71.97;100597.97;5049482;28;20052;-86
2023/03/10 01:06:12;;;;;;;5.95;3.83;;;;;;;14.10;71.86;100603.41;5027318;28;20386;-85
2023/03/10 01:08:38;;;;;;;;;;;;;;;14.11;71.87;100607.78;5056076;28;20098;-85
2023/03/10 01:11:04;;;;;;;8.07;3.50;;;;;;;13.95;71.88;100590.59;5055711;28;19998;-85
2023/03/10 01:13:29;;;;;;;5.13;3.13;;;;;;;14.00;71.86;100601.25;5039214;28;20030;-85
2023/03/10 01:15:55;;;;;;;5.55;3.33;;;;;;;14.00;71.62;100607.41;5046000;28;20086;-85
2023/03/10 01:18:21;;;;;;;4.45;3.30;;;;;;;14.10;71.71;100610.38;5073145;28;20028;-85
2023/03/10 01:20:47;;;;;;;5.88;3.58;;;;;;;14.08;71.68;100609.44;5055497;28;20087;-85
2023/03/10 01:23:14;;;;;;;;;;;;;;;14.12;71.87;100606.06;5058014;28;20525;-85
2023/03/10 01:25:40;;;;;;;5.10;3.30;;;;;;;13.98;71.82;100581.94;5054697;28;19919;-84
2023/03/10 01:28:05;;;;;;;5.78;3.45;;;;;;;14.07;71.81;100603.25;5071710;28;20048;-85
2023/03/10 01:30:31;;;;;;;5.07;3.10;;;;;;;13.83;71.95;100558.63;5073437;28;20024;-85
2023/03/10 01:32:57;;;;;;;4.82;3.10;;;;;;;13.67;72.07;100533.53;5071940;28;20513;-85
2023/03/10 01:35:22;;;;;;;3.97;2.92;;;;;;;13.76;72.37;100547.00;5072085;28;20028;-84
2023/03/10 01:37:48;;;;;;;4.63;3.28;;;;;;;14.09;72.21;100612.09;5054614;28;20105;-85
2023/03/10 01:40:15;;;;;;;6.03;3.65;;;;;;;14.05;71.87;100621.59;5055391;28;20040;-85
2023/03/10 01:42:42;;;;;;;7.45;3.55;;;;;;;13.75;72.11;100560.06;5071869;28;20444;-85
2023/03/10 01:45:29;;;;;;;6.03;3.40;;;;;;;13.96;71.96;100599.34;5071844;28;20478;-85
2023/03/10 01:47:54;;;;;;;;;;;;;;;14.10;71.78;100613.91;5072664;28;20111;-85
2023/03/10 01:50:21;;;;;;;4.63;3.00;;;;;;;13.94;71.79;100590.53;5050582;28;19995;-85
2023/03/10 01:52:55;;;;;;;5.95;3.40;;;;;;;14.00;72.35;100599.53;5051703;28;20115;-85
2023/03/10 01:55:24;;;;;;;5.28;3.15;;;;;;;13.77;71.82;100553.16;5072874;28;20510;-85
2023/03/10 01:57:52;;;;;;;4.63;3.17;;;;;;;14.04;72.42;100606.69;5067460;28;20056;-85
2023/03/10 02:00:19;;;;;;;4.30;3.13;;;;;;;14.04;71.92;100619.81;5054562;28;20021;-85
2023/03/10 02:02:45;;;;;;;5.80;3.65;;;;;;;14.07;72.05;100626.91;5072529;28;20020;-85
2023/03/10 02:05:13;;;;;;;6.10;3.55;;;;;;;13.92;71.67;100598.34;5068216;28;20036;-85
2023/03/10 02:07:39;;;;;;;4.88;3.30;;;;;;;13.89;72.07;100590.34;5054872;28;20455;-84
2023/03/10 02:10:05;;;;;;;4.95;3.45;;;;;;;13.97;72.33;100603.75;5071668;28;20020;-85
2023/03/10 02:12:30;;;;;;;5.00;3.20;;;;;;;14.05;72.11;100620.69;5054937;28;20070;-86
2023/03/10 02:14:56;;;;;;;7.20;3.30;;;;;;;14.01;72.23;100622.34;5055141;28;20063;-86
2023/03/10 02:17:23;;;;;;;4.57;3.08;;;;;;;13.86;72.25;100600.72;5072143;28;20068;-86
2023/03/10 02:20:29;;;;;;;5.32;3.08;;;;;;;14.08;72.13;100635.69;5054882;28;20036;-85
2023/03/10 02:22:55;;;;;;;4.53;3.05;;;;;;;13.68;72.14;100572.06;5059052;28;20494;-86
2023/03/10 02:25:28;;;;;;;4.45;3.15;;;;;;;13.91;72.17;100598.31;5072644;28;20024;-85
2023/03/10 02:27:54;;;;;;;6.07;3.45;;;;;;;14.03;72.30;100625.91;5054613;28;20056;-86
2023/03/10 02:30:32;;;;;;;4.93;3.60;;;;;;;13.92;72.38;100614.09;5054327;28;20095;-85
2023/03/10 02:33:02;;;;;;;4.03;3.03;;;;;;;13.99;72.45;100626.63;5054218;28;20114;-85
2023/03/10 02:35:27;;;;;;;4.65;3.00;;;;;;;13.95;72.63;100614.22;5054270;28;20031;-85
2023/03/10 02:37:53;;;;;;;4.38;3.22;;;;;;;13.85;72.64;100599.84;5054220;28;20032;-85
2023/03/10 02:40:36;;;;;;;5.20;3.30;;;;;;;14.02;72.97;100624.09;5070238;28;20048;-86
2023/03/10 02:43:11;;;;;;;7.93;4.03;;;;;;;14.03;72.65;100619.72;5054267;28;20099;-86
2023/03/10 02:45:37;;;;;;;5.22;3.50;;;;;;;13.95;72.76;100621.19;5054128;28;20093;-86
2023/03/10 02:48:03;;;;;;;6.20;3.55;;;;;;;13.91;73.29;100621.94;5070631;28;20563;-86
2023/03/10 02:50:33;;;;;;;4.45;3.13;;;;;;;13.98;72.73;100627.44;5054026;28;20032;-86
2023/03/10 02:53:11;;;;;;;4.53;3.50;;;;;;;13.73;72.93;100580.09;5037473;28;20025;-86
2023/03/10 02:55:36;;;;;;;6.40;3.75;;;;;;;13.90;73.20;100614.88;5049096;28;20027;-85
2023/03/10 02:58:02;;;;;;;5.57;3.70;;;;;;;13.94;73.28;100638.66;5046935;28;20028;-86
2023/03/10 03:00:29;;;;;;;4.95;3.47;;;;;;;13.96;73.19;100642.25;5052362;28;20565;-86
2023/03/10 03:02:54;;;;;;;;;;;;;;;13.99;73.42;100644.09;5043860;28;20028;-86
2023/03/10 03:05:20;;;;;;;5.20;3.53;;;;;;;13.79;73.24;100625.84;5064742;28;19909;-85
2023/03/10 03:07:45;;;;;;;4.80;3.58;;;;;;;13.67;73.61;100603.50;5070156;28;20036;-86
2023/03/10 03:10:11;;;;;;;5.00;3.67;;;;;;;13.95;73.55;100645.72;5053470;28;20026;-85
2023/03/10 03:12:36;;;;;;;4.90;3.53;;;;;;;13.82;73.32;100628.59;5071138;28;20082;-85
2023/03/10 03:15:03;;;;;;;7.15;4.28;;;;;;;13.95;73.60;100648.34;5050390;28;20033;-85
2023/03/10 03:17:29;;;;;;;5.90;4.07;;;;;;;13.93;73.23;100650.03;5071198;28;20036;-86
2023/03/10 03:19:55;;;;;;;6.28;4.10;;;;;;;13.83;73.32;100635.63;5053136;28;20103;-85
2023/03/10 03:22:21;;;;;;;6.60;3.97;;;;;;;13.82;73.52;100651.31;5064881;28;20065;-85
2023/03/10 03:24:46;;;;;;;6.78;4.05;;;;;;;13.92;73.54;100660.44;5069905;28;20027;-85
2023/03/10 03:27:12;;;;;;;4.63;3.47;;;;;;;13.93;73.50;100655.28;5070738;28;20040;-85
2023/03/10 03:29:38;;;;;;;5.13;4.05;;;;;;;13.62;73.69;100608.56;5052750;28;20033;-86
2023/03/10 03:32:04;;;;;;;6.25;4.53;;;;;;;13.66;73.49;100615.72;5069020;28;20470;-85
2023/03/10 03:34:30;;;;;;;4.65;3.65;;;;;;;13.94;73.41;100658.78;5053079;28;20460;-85
2023/03/10 03:36:55;;;;;;;5.53;4.15;;;;;;;13.78;73.24;100638.94;5070965;28;20081;-85
2023/03/10 03:39:21;;;;;;;5.22;4.00;;;;;;;13.90;73.19;100663.00;5069507;28;20062;-85
2023/03/10 03:41:47;;;;;;;6.70;4.25;;;;;;;13.74;73.42;100637.91;5069961;28;20024;-85
2023/03/10 03:44:13;;;;;;;5.32;4.00;;;;;;;13.93;73.22;100664.88;5070811;28;20481;-85
2023/03/10 03:46:39;;;;;;;6.22;4.22;;;;;;;13.63;73.17;100615.59;5053053;28;20106;-86
2023/03/10 03:49:04;;;;;;;7.85;4.25;;;;;;;13.51;73.19;100599.38;5052981;28;20039;-86
2023/03/10 03:51:30;;;;;;;7.43;4.10;;;;;;;13.70;73.21;100620.25;5062026;28;20481;-86
2023/03/10 03:53:55;;;;;;;5.60;4.15;;;;;;;13.68;72.49;100613.16;5053068;28;20125;-84
2023/03/10 03:56:21;;;;;;;7.05;4.60;;;;;;;13.83;73.13;100656.63;5070871;28;20024;-85
2023/03/10 03:58:47;;;;;;;5.90;4.05;;;;;;;13.66;73.47;100631.47;5052911;28;20040;-84
2023/03/10 04:01:12;;;;;;;6.45;4.28;;;;;;;13.80;72.90;100664.41;5070858;28;20477;-84
2023/03/10 04:03:38;;;;;;;7.00;4.55;;;;;;;13.83;72.80;100672.38;5070467;28;20043;-85
2023/03/10 04:06:06;;;;;;;6.30;4.00;;;;;;;13.83;73.08;100674.13;5053026;28;20099;-85
2023/03/10 04:08:32;;;;;;;6.18;4.28;;;;;;;13.80;72.87;100671.34;5059414;28;20119;-86
2023/03/10 04:10:57;;;;;;;6.10;4.32;;;;;;;13.91;72.93;100682.31;5070811;28;20401;-84
2023/03/10 04:13:23;;;;;;;6.07;4.28;;;;;;;13.77;72.87;100656.38;5070523;28;20173;-83
2023/03/10 04:15:56;;;;;;;6.75;4.60;;;;;;;13.90;72.95;100677.88;5060997;28;20033;-85
2023/03/10 04:18:22;;;;;;;6.60;4.47;;;;;;;13.62;72.77;100627.81;5061649;28;20033;-85
2023/03/10 04:20:51;;;;;;;8.27;4.45;;;;;;;13.81;72.77;100657.41;5064603;28;20028;-85
2023/03/10 04:23:16;;;;;;;5.80;4.28;;;;;;;13.86;72.94;100676.84;5051992;28;20029;-84
2023/03/10 04:25:42;;;;;;;7.93;4.93;;;;;;;13.90;72.75;100685.75;5057346;28;20513;-85
2023/03/10 04:28:09;;;;;;;5.60;4.20;;;;;;;13.88;73.13;100690.94;5050793;28;20055;-85
2023/03/10 04:30:35;;;;;;;5.90;4.10;;;;;;;13.69;72.66;100651.69;5051164;28;20032;-85
2023/03/10 04:33:01;;;;;;;7.60;4.80;;;;;;;13.50;73.32;100621.19;5050298;28;20401;-84
2023/03/10 04:35:27;;;;;;;8.07;4.88;;;;;;;13.57;73.27;100616.25;5059519;28;20111;-86
2023/03/10 04:37:53;;;;;;;;;;;;;;;13.92;73.11;100681.44;5050170;28;20119;-86
2023/03/10 04:40:19;;;;;;;6.68;4.38;;;;;;;13.90;73.01;100683.13;5052484;28;20067;-86
2023/03/10 04:42:44;;;;;;;5.10;3.80;;;;;;;13.69;73.07;100651.69;5051142;28;20032;-85
2023/03/10 04:45:10;;;;;;;6.78;4.82;;;;;;;13.87;72.88;100680.38;5072878;28;20471;-84
2023/03/10 04:47:36;;;;;;;;;;;;;;;13.90;72.67;100677.88;5056749;28;20028;-84
2023/03/10 04:50:03;;;;;;;7.07;4.47;;;;;;;13.41;72.78;100613.84;5073295;28;19935;-84
2023/03/10 04:52:28;;;;;;;6.40;4.30;;;;;;;13.70;72.87;100648.22;5072584;28;20032;-85
2023/03/10 04:54:54;;;;;;;5.53;4.13;;;;;;;13.77;72.58;100666.00;5068608;28;20033;-83
2023/03/10 04:57:19;;;;;;;7.07;4.03;;;;;;;13.71;73.09;100661.38;5072396;28;20044;-85
2023/03/10 04:59:45;;;;;;;5.45;4.00;;;;;;;13.67;73.18;100656.84;5071941;28;20489;-85
2023/03/10 05:02:11;;;;;;;5.82;4.50;;;;;;;13.46;72.72;100621.91;5053471;28;20509;-84
2023/03/10 05:04:38;;;;;;;5.78;4.53;;;;;;;13.73;72.73;100672.84;5071856;28;20508;-86
2023/03/10 05:07:07;;;;;;;6.53;4.60;;;;;;;13.76;72.53;100677.34;5071116;28;20555;-85
2023/03/10 05:09:36;;;;;;;7.45;4.65;;;;;;;13.59;72.94;100658.31;5060936;28;20029;-85
2023/03/10 05:12:04;;;;;;;7.20;4.30;;;;;;;13.88;72.77;100701.41;5052665;28;20029;-84
2023/03/10 05:14:29;;;;;;;6.57;4.68;;;;;;;13.76;72.71;100688.72;5063510;28;20033;-84
2023/03/10 05:16:55;;;;;;;5.78;4.35;;;;;;;13.68;73.03;100669.16;5059539;28;20040;-84
2023/03/10 05:19:20;;;;;;;5.68;4.30;;;;;;;13.83;72.62;100693.38;5069066;28;20032;-84
2023/03/10 05:21:46;;;;;;;6.63;4.55;;;;;;;13.84;72.95;100703.06;5065591;28;20105;-84
2023/03/10 05:24:11;;;;;;;9.63;4.90;;;;;;;13.81;72.63;100709.91;5066167;28;20107;-84
2023/03/10 05:26:37;;;;;;;7.90;5.03;;;;;;;13.78;72.56;100694.06;5054957;28;20124;-85
2023/03/10 05:29:03;;;;;;;7.80;5.30;;;;;;;13.77;72.66;100693.13;5063182;28;20057;-84
2023/03/10 05:31:29;;;;;;;7.65;4.78;;;;;;;13.77;72.92;100689.63;5051240;28;20055;-84
2023/03/10 05:33:54;;;;;;;6.05;4.57;;;;;;;13.87;73.11;100714.50;5052971;28;20028;-85
2023/03/10 05:36:20;;;;;;;8.05;4.72;;;;;;;13.52;72.70;100661.50;5053025;28;20032;-84
2023/03/10 05:38:46;;;;;;;6.43;4.57;;;;;;;13.81;73.06;100704.66;5052982;28;20028;-84
2023/03/10 05:41:11;;;;;;;6.80;4.50;;;;;;;13.79;72.66;100695.81;5053361;28;20031;-85
2023/03/10 05:43:37;;;;;;;7.57;4.65;;;;;;;13.69;73.39;100689.31;5050207;28;20765;-85
2023/03/10 05:46:04;;;;;;;6.50;4.35;;;;;;;13.89;73.55;100718.97;5053542;28;20060;-86
2023/03/10 05:48:30;;;;;;;5.22;4.15;;;;;;;13.87;73.40;100717.13;5066236;28;20029;-87
2023/03/10 05:51:06;;;;;;;6.93;4.78;;;;;;;13.88;73.24;100724.16;5040041;28;20044;-87
2023/03/10 05:53:34;;;;;;;5.82;4.30;;;;;;;13.70;73.57;100703.34;5063679;28;20571;-88
2023/03/10 05:56:04;;;;;;;7.20;4.50;;;;;;;13.88;73.85;100727.69;5050619;28;20056;-85
2023/03/10 05:58:30;;;;;;;6.63;4.32;;;;;;;13.80;73.89;100730.00;5049996;28;20021;-88
2023/03/10 06:00:56;;;;;;;5.50;4.13;;;;;;;13.71;73.77;100718.25;5039813;28;20031;-89
2023/03/10 06:03:23;;;;;;;6.53;4.65;;;;;;;13.78;73.84;100731.69;5062499;28;20449;-89
2023/03/10 06:05:49;;;;;;;5.70;4.20;;;;;;;13.87;73.70;100751.25;5030193;28;20399;-89
2023/03/10 06:08:15;;;;;;;5.72;3.95;;;;;;;13.86;73.60;100752.97;5052778;28;20060;-89
2023/03/10 06:10:40;;;;;;;7.45;4.32;;;;;;;13.85;74.00;100752.06;5049648;28;20030;-88
2023/03/10 06:13:07;;;;;;;5.07;4.03;;;;;;;13.66;73.87;100719.78;5064755;28;20108;-88
2023/03/10 06:15:32;;;;;;;6.70;4.30;;;;;;;13.81;73.76;100744.91;5052500;28;20029;-88
2023/03/10 06:17:58;;;;;;;7.55;4.45;;;;;;;13.75;73.97;100733.28;5047814;28;20039;-89
2023/03/10 06:20:24;;;;;;;5.55;4.57;;;;;;;13.78;73.91;100739.56;5032289;28;20398;-90
2023/03/10 06:22:53;;;;;;;5.95;4.38;;;;;;;13.87;74.05;100760.03;5033449;28;20480;-89
2023/03/10 06:25:22;;;;;;;6.43;4.60;;;;;;;13.67;73.79;100721.56;5050774;28;20099;-91
2023/03/10 06:27:47;;;;;;;5.18;4.40;;;;;;;13.73;73.79;100732.31;5034320;28;20194;-89
2023/03/10 06:33:10;;;;;;;6.43;4.50;;;;;;;13.76;73.65;100732.47;5007747;28;20052;-92
2023/03/10 06:35:38;;;;;;;5.72;4.40;;;;;;;13.69;73.52;100723.41;4997294;28;20124;-92
2023/03/10 06:38:03;;;;;;;7.00;4.88;;;;;;;13.79;73.40;100740.44;5013932;28;20128;-88
2023/03/10 06:40:30;;;;;;;6.43;4.50;;;;;;;13.82;73.50;100754.59;5013099;28;20033;-91
2023/03/10 06:42:55;;;;;;;5.82;4.40;;;;;;;13.76;73.35;100745.59;5016744;28;20036;-94
2023/03/10 06:45:21;;;;;;;5.38;4.28;;;;;;;13.78;73.44;100736.03;5007711;28;20438;-91
2023/03/10 06:47:47;;;;;;;6.50;4.72;;;;;;;13.55;73.27;100688.75;5012819;28;20064;-90
2023/03/10 06:50:16;;;;;;;6.57;4.60;;;;;;;13.78;73.19;100731.69;4991180;28;20061;-93
2023/03/10 06:52:53;;;;;;;5.10;3.95;;;;;;;13.81;73.36;100738.78;5021523;28;20026;-93
2023/03/10 06:55:18;;;;;;;4.88;3.92;;;;;;;13.88;73.53;100747.78;5024456;28;20038;-93
2023/03/10 06:57:52;;;;;;;6.18;3.97;;;;;;;13.93;73.37;100754.13;5016647;28;20120;-94
2023/03/10 07:00:18;;;;;;;6.03;4.20;;;;;;;13.92;73.25;100753.22;4998218;28;20422;-92
2023/03/10 07:02:44;;;;;;;5.15;3.92;;;;;;;13.89;73.49;100749.59;5023422;28;20421;-94
2023/03/10 07:05:26;;;;;;;5.10;4.13;;;;;;;13.79;73.53;100729.94;5026257;28;20025;-93
2023/03/10 07:07:58;;;;;;;5.00;4.00;;;;;;;13.84;73.67;100739.81;5004741;28;20405;-93
2023/03/10 07:10:25;;;;;;;4.75;3.63;;;;;;;13.77;73.45;100729.00;4984824;28;20034;-93
2023/03/10 07:12:57;;;;;;;7.00;4.20;;;;;;;13.92;73.50;100760.19;5012285;28;20109;-93
2023/03/10 07:16:12;;;;;;;5.35;4.15;;;;;;;13.93;73.30;100760.28;5001819;28;20036;-94
2023/03/10 07:18:43;;;;;;;6.38;4.50;;;;;;;13.64;73.21;100717.09;5013416;28;20034;-94
2023/03/10 07:21:14;;;;;;;5.18;4.20;;;;;;;13.91;73.51;100768.94;5016998;28;20083;-93
2023/03/10 07:23:41;;;;;;;5.20;4.00;;;;;;;13.83;73.54;100759.00;5015346;28;20080;-93
2023/03/10 07:26:14;;;;;;;4.88;3.90;;;;;;;13.52;73.32;100696.50;5014883;28;20022;-93
2023/03/10 07:28:44;;;;;;;5.53;4.60;;;;;;;13.94;73.42;100764.69;5015408;28;20028;-91
2023/03/10 07:31:13;;;;;;;4.32;3.58;;;;;;;13.93;73.67;100767.25;5015547;28;20112;-94
2023/03/10 07:33:50;;;;;;;5.40;3.92;;;;;;;13.94;73.75;100767.31;5031079;28;20045;-94
2023/03/10 07:36:23;;;;;;;5.38;4.00;;;;;;;13.92;73.73;100763.72;5001501;28;20029;-93
2023/03/10 07:38:52;;;;;;;5.90;3.85;;;;;;;13.84;73.77;100763.44;4979300;28;20618;-94
2023/03/10 07:41:29;;;;;;;5.75;4.18;;;;;;;13.79;73.54;100743.97;5000720;28;20034;-94
2023/03/10 07:44:01;;;;;;;;;;;;;;;13.97;73.34;100782.28;5012869;28;20021;-93
2023/03/10 07:46:27;;;;;;;5.22;3.88;;;;;;;13.83;73.76;100772.13;5030542;28;19999;-90
2023/03/10 07:48:54;;;;;;;5.40;3.75;;;;;;;13.69;73.75;100747.03;5017674;28;20461;-90
2023/03/10 07:51:20;;;;;;;4.75;4.25;;;;;;;13.88;73.68;100774.94;4997580;28;20040;-91
2023/03/10 07:53:46;;;;;;;5.18;3.83;;;;;;;13.63;73.75;100739.81;4999095;28;20033;-91
2023/03/10 07:56:13;;;;;;;5.15;3.90;;;;;;;13.76;74.04;100754.34;5014108;28;20230;-92
2023/03/10 07:58:40;;;;;;;5.93;3.97;;;;;;;13.79;73.92;100754.44;5014682;28;20022;-91
2023/03/10 08:01:06;;;;;;;5.22;3.88;;;;;;;13.92;74.10;100775.94;5005408;28;20549;-92
2023/03/10 08:03:34;;;;;;;4.07;3.55;;;;;;;13.88;73.88;100774.94;5015040;28;20067;-91
2023/03/10 08:06:04;;;;;;;6.10;4.35;;;;;;;13.91;74.10;100777.69;5014345;28;20578;-91
2023/03/10 08:08:30;;;;;;;7.03;4.00;;;;;;;13.90;74.12;100781.13;5002279;28;20056;-91
2023/03/10 08:11:05;;;;;;;5.93;4.00;;;;;;;13.90;73.99;100775.00;4997636;28;20029;-91
2023/03/10 08:13:32;;;;;;;4.60;3.80;;;;;;;13.92;73.84;100779.47;5013981;28;20456;-89
2023/03/10 08:16:14;;;;;;;6.85;4.18;;;;;;;13.79;74.01;100745.69;5004514;28;20022;-90
2023/03/10 08:18:41;;;;;;;4.25;3.80;;;;;;;13.57;73.80;100702.84;5015678;28;20486;-93
2023/03/10 08:21:07;;;;;;;4.85;3.67;;;;;;;13.71;73.95;100737.50;5033270;28;20029;-91
2023/03/10 08:23:36;;;;;;;5.25;3.97;;;;;;;13.89;74.18;100774.09;5010078;28;20469;-91
2023/03/10 08:26:07;;;;;;;5.57;3.70;;;;;;;13.83;73.99;100750.22;5004779;28;20481;-89
2023/03/10 08:28:37;;;;;;;5.78;3.67;;;;;;;13.82;73.87;100751.06;5014669;28;20025;-90
2023/03/10 08:31:20;;;;;;;5.22;4.07;;;;;;;13.83;74.49;100753.75;5005927;28;20083;-92
2023/03/10 08:33:49;;;;;;;4.68;4.05;;;;;;;13.88;74.45;100760.91;5019446;28;20041;-92
2023/03/10 08:36:17;;;;;;;5.95;3.97;;;;;;;13.89;74.37;100776.72;5009369;28;20553;-93
2023/03/10 08:38:45;;;;;;;5.55;4.15;;;;;;;13.76;74.53;100749.09;5016898;28;20054;-93
2023/03/10 08:41:13;;;;;;;5.43;4.25;;;;;;;13.90;74.68;100772.38;5006995;28;20025;-93
2023/03/10 08:43:39;;;;;;;4.82;3.97;;;;;;;13.88;74.90;100768.78;5020388;28;20040;-94
2023/03/10 08:46:14;;;;;;;5.05;3.97;;;;;;;13.80;74.96;100758.88;5016378;28;20101;-92
2023/03/10 08:48:56;;;;;;;6.13;4.10;;;;;;;13.73;74.93;100748.94;4995728;28;20025;-92
2023/03/10 08:51:38;;;;;;;6.63;4.60;;;;;;;13.89;74.66;100773.22;5012213;28;20025;-92
2023/03/10 08:54:18;;;;;;;4.63;4.00;;;;;;;13.90;74.87;100778.50;5007215;28;20028;-91
2023/03/10 08:56:45;;;;;;;6.47;4.80;;;;;;;13.87;74.96;100760.03;5007886;28;20030;-93
2023/03/10 08:59:19;;;;;;;6.47;4.68;;;;;;;13.79;74.74;100745.69;5008437;28;20120;-92
2023/03/10 09:01:45;;;;;;;8.38;4.88;;;;;;;13.89;74.66;100755.72;5007899;28;20025;-93
2023/03/10 09:04:16;;;;;;;8.32;4.53;;;;;;;13.53;74.95;100697.41;5028478;28;20032;-91
2023/03/10 09:06:52;;;;;;;7.38;4.63;;;;;;;13.52;74.93;100696.50;5022775;28;20022;-93
2023/03/10 09:09:18;;;;;;;7.03;4.63;;;;;;;13.53;74.91;100694.78;5040653;28;20030;-92
2023/03/10 09:11:59;;;;;;;6.55;4.95;;;;;;;13.83;74.76;100742.34;5023160;28;20033;-93
2023/03/10 09:14:41;;;;;;;6.25;4.25;;;;;;;13.79;75.18;100730.81;5004181;28;20017;-92
2023/03/10 09:17:08;;;;;;;6.57;4.85;;;;;;;13.91;75.40;100750.56;5015786;28;20057;-93
2023/03/10 09:19:50;;;;;;;7.80;4.78;;;;;;;13.88;74.99;100738.19;4998245;28;20026;-93
2023/03/10 09:22:21;;;;;;;7.65;4.90;;;;;;;13.84;75.38;100736.25;5011823;28;20030;-94
2023/03/10 09:24:52;;;;;;;7.90;4.50;;;;;;;13.93;75.28;100748.88;5014628;28;20029;-94
2023/03/10 09:27:24;;;;;;;6.80;5.03;;;;;;;13.73;75.17;100706.06;5009578;28;20018;-91
2023/03/10 09:29:50;;;;;;;6.57;4.70;;;;;;;13.88;75.02;100730.31;5012170;28;20033;-93
2023/03/10 09:32:16;;;;;;;7.07;4.97;;;;;;;13.85;75.11;100735.44;5002594;28;20072;-93
2023/03/10 09:34:44;;;;;;;7.68;5.15;;;;;;;13.86;75.19;100729.34;5019102;28;20033;-91
2023/03/10 09:37:10;;;;;;;7.50;5.00;;;;;;;13.97;75.03;100746.44;5014542;28;20452;-94
2023/03/10 09:39:43;;;;;;;8.40;5.15;;;;;;;13.87;75.22;100732.88;5010819;28;20063;-91
2023/03/10 09:42:29;;;;;;;7.68;5.18;;;;;;;13.98;75.17;100740.34;5005942;28;20036;-94
2023/03/10 09:45:20;;;;;;;7.88;4.88;;;;;;;13.99;75.06;100749.09;5026587;28;20046;-94
2023/03/10 09:48:11;;;;;;;8.38;5.55;;;;;;;14.03;74.87;100745.75;5038185;28;20037;-95
2023/03/10 09:50:51;;;;;;;6.43;4.90;;;;;;;14.01;74.99;100732.59;4983458;28;20033;-94
2023/03/10 09:56:35;;;;;;;7.00;4.80;;;;;;;14.05;75.03;100733.59;5031816;28;20033;-95
2023/03/10 09:59:04;;;;;;;7.00;4.97;;;;;;;14.03;75.16;100725.69;4994151;28;20029;-95
2023/03/10 10:01:31;;;;;;;5.82;5.00;;;;;;;14.04;75.11;100731.81;5021761;28;20037;-94
2023/03/10 10:04:07;;;;;;;8.52;5.40;;;;;;;14.02;75.15;100723.88;5022224;28;20491;-93
2023/03/10 10:06:36;;;;;;;8.05;5.32;;;;;;;14.00;74.94;100717.66;5014542;28;20033;-91
2023/03/10 10:09:41;;;;;;;7.18;5.30;;;;;;;14.10;74.91;100724.19;5002826;28;20033;-93
2023/03/10 10:12:17;;;;;;;7.88;5.22;;;;;;;14.01;75.21;100716.84;4978304;28;20120;-92
2023/03/10 10:14:49;;;;;;;6.05;4.68;;;;;;;13.90;75.33;100701.50;5016601;28;20026;-93
2023/03/10 10:17:36;;;;;;;7.05;4.82;;;;;;;14.05;75.24;100721.38;5005080;28;20022;-91
2023/03/10 10:20:24;;;;;;;8.65;5.40;;;;;;;14.09;75.07;100705.72;5023375;28;20493;-93
2023/03/10 10:22:58;;;;;;;7.00;5.10;;;;;;;14.01;74.86;100687.97;5002056;28;20029;-92
2023/03/10 10:25:29;;;;;;;7.25;5.15;;;;;;;14.11;74.84;100698.81;5023534;28;20041;-88
2023/03/10 10:28:19;;;;;;;6.95;4.97;;;;;;;14.12;74.81;100696.25;5013451;28;20035;-92
2023/03/10 10:30:50;;;;;;;6.88;4.95;;;;;;;14.05;74.66;100683.72;5013484;28;20022;-92
2023/03/10 10:33:16;;;;;;;8.50;5.13;;;;;;;13.87;75.07;100662.91;4990146;28;20426;-92
2023/03/10 10:36:01;;;;;;;8.20;4.88;;;;;;;14.07;74.90;100691.66;4997159;28;20018;-94
2023/03/10 10:38:30;;;;;;;7.00;4.72;;;;;;;13.92;75.00;100663.06;5008626;28;20034;-94
2023/03/10 10:41:05;;;;;;;6.25;4.50;;;;;;;13.94;75.05;100657.03;4998106;28;20066;-93
2023/03/10 10:43:39;;;;;;;7.93;4.60;;;;;;;13.74;74.83;100618.66;5015652;28;20030;-85
2023/03/10 10:46:31;;;;;;;6.57;4.68;;;;;;;14.11;75.18;100681.31;5001673;28;20029;-93
2023/03/10 10:49:21;;;;;;;7.55;5.35;;;;;;;14.01;74.79;100643.34;5011074;28;20080;-94
2023/03/10 10:52:03;;;;;;;7.53;4.85;;;;;;;14.11;75.12;100652.44;5013079;28;20022;-94
2023/03/10 10:54:40;;;;;;;6.28;4.63;;;;;;;14.11;75.07;100654.16;5003333;28;20657;-94
2023/03/10 10:57:18;;;;;;;6.53;4.47;;;;;;;14.10;74.94;100655.91;4996583;28;20025;-94
2023/03/10 10:59:44;;;;;;;5.93;4.50;;;;;;;14.13;75.04;100648.13;5027693;28;20023;-94
2023/03/10 11:02:30;;;;;;;7.65;5.05;;;;;;;14.06;75.19;100630.38;5026813;28;20137;-94
2023/03/10 11:05:15;;;;;;;6.25;4.70;;;;;;;14.01;74.91;100616.16;5024286;28;20031;-94
2023/03/10 11:07:45;;;;;;;6.53;4.75;;;;;;;14.12;75.35;100627.97;5006891;28;20109;-93
2023/03/10 11:10:25;;;;;;;6.65;4.80;;;;;;;14.01;75.21;100601.31;4997916;28;20426;-95
2023/03/10 11:13:15;;;;;;;5.80;4.30;;;;;;;14.13;75.62;100628.88;5007255;28;20019;-91
2023/03/10 11:16:15;;;;;;;6.32;4.82;;;;;;;14.14;75.40;100617.50;5022341;28;20030;-95
2023/03/10 11:19:07;;;;;;;6.05;4.63;;;;;;;14.13;75.45;100610.47;4981593;28;20054;-94
2023/03/10 11:21:41;;;;;;;6.60;4.53;;;;;;;14.14;75.64;100613.19;4986231;28;20478;-94
2023/03/10 11:24:43;;;;;;;6.75;4.32;;;;;;;14.16;75.54;100610.59;4993264;28;20550;-94
2023/03/10 11:27:15;;;;;;;6.47;4.50;;;;;;;14.06;75.67;100588.38;4959555;28;20049;-95
2023/03/10 11:29:41;;;;;;;5.47;4.47;;;;;;;14.17;75.35;100597.53;5006494;28;20518;-94
2023/03/10 11:32:39;;;;;;;6.63;4.53;;;;;;;14.14;75.82;100591.25;5023232;28;20036;-94
2023/03/10 11:35:33;;;;;;;6.43;4.65;;;;;;;14.14;75.50;100588.63;5012766;28;20033;-94
2023/03/10 11:38:20;;;;;;;5.97;4.20;;;;;;;14.15;75.76;100587.81;5002963;28;20040;-96
2023/03/10 11:41:14;;;;;;;5.32;4.38;;;;;;;14.12;75.98;100564.97;5031224;28;20040;-92
2023/03/10 11:43:54;;;;;;;6.60;4.60;;;;;;;13.74;75.88;100493.56;5013359;28;20049;-92
2023/03/10 11:46:48;;;;;;;6.53;4.38;;;;;;;14.21;75.42;100569.66;5022926;28;20315;-95